Blue River, Wisconsin
Current Conditions -  °F | °C
As of 11:11 PM on Monday 22 Dec 2014 (Local Time) from KOVS Reporting Station
Light Rain Light Rain  
Wind Chill: 32°   Ceiling: 400
Heat Index: 37°   Visibility: 2.5mi
Dew Point: 35°   Wind: 6mph
Humidity: 93%   Direction: 60°ENE
Pressure: 29.57"   Gusts: NA
Location:  43.19°N, 90.57°W
Report Text: KOVS 230511Z AUTO 06005KT 2 1/2SM -RA BR OVC004 03/02 A2957 RMK AO2 RAB10 P0000 T00280017
Loading
Personal Weather Stations






























Interactive Weather Map New forecast layout! Learn more

10-Day Weather Forecast

Advertisements
Track Severe Weather on mobile